Time;durP1;ratioP1;P1;durP2;ratioP2;P2;SDS_P1;SDS_P2;PMS_P1;PMS_P2;Temp;Humidity;BMP_temperature;BMP_pressure;BME280_temperature;BME280_humidity;BME280_pressure;Samples;Min_cycle;Max_cycle;Signal;HPM_P1;HPM_P2
2023/02/03 00:01:18;;;;;;;11.80;5.80;;;;;;;;;;5035170;28;20186;-78
2023/02/03 00:03:45;;;;;;;11.47;4.63;;;;;;;;;;5036368;28;20501;-77
2023/02/03 00:06:11;;;;;;;10.90;5.15;;;;;;;;;;5036504;28;20402;-77
2023/02/03 00:08:37;;;;;;;11.93;5.97;;;;;;;;;;5036275;28;20192;-77
2023/02/03 00:11:04;;;;;;;11.52;5.10;;;;;;;;;;5036356;28;20554;-76
2023/02/03 00:13:30;;;;;;;6.57;4.53;;;;;;;;;;5036558;28;20566;-77
2023/02/03 00:15:56;;;;;;;4.83;3.77;;;;;;;;;;5036625;28;20246;-77
2023/02/03 00:18:22;;;;;;;8.50;3.93;;;;;;;;;;5036559;28;20764;-77
2023/02/03 00:20:48;;;;;;;8.37;4.60;;;;;;;;;;5035161;28;20409;-77
2023/02/03 00:23:14;;;;;;;8.77;5.03;;;;;;;;;;5036318;28;20405;-77
2023/02/03 00:25:40;;;;;;;15.10;5.23;;;;;;;;;;5036392;28;20191;-77
2023/02/03 00:28:06;;;;;;;14.40;4.70;;;;;;;;;;5035868;28;20401;-77
2023/02/03 00:30:35;;;;;;;16.25;4.53;;;;;;;;;;5034439;28;20674;-77
2023/02/03 00:33:02;;;;;;;8.27;4.97;;;;;;;;;;5036484;28;20212;-77
2023/02/03 00:35:28;;;;;;;11.52;4.50;;;;;;;;;;5034459;28;20260;-77
2023/02/03 00:37:55;;;;;;;8.07;3.50;;;;;;;;;;5036612;28;20233;-77
2023/02/03 00:40:21;;;;;;;10.98;5.45;;;;;;;;;;5035868;28;20193;-77
2023/02/03 00:42:47;;;;;;;6.07;3.33;;;;;;;;;;5036549;28;20174;-77
2023/02/03 00:45:13;;;;;;;7.22;3.42;;;;;;;;;;5035657;28;20178;-77
2023/02/03 00:47:39;;;;;;;7.80;4.67;;;;;;;;;;5035793;28;20193;-77
2023/02/03 00:50:06;;;;;;;11.60;4.20;;;;;;;;;;5036188;28;20520;-77
2023/02/03 00:52:32;;;;;;;9.07;3.33;;;;;;;;;;5035887;28;20413;-77
2023/02/03 00:54:58;;;;;;;9.10;4.00;;;;;;;;;;5036246;28;20185;-77
2023/02/03 00:57:24;;;;;;;11.57;3.70;;;;;;;;;;5036347;28;20796;-77
2023/02/03 00:59:50;;;;;;;10.00;4.20;;;;;;;;;;5036737;28;20179;-77
2023/02/03 01:02:16;;;;;;;10.88;3.65;;;;;;;;;;5036098;28;20416;-77
2023/02/03 01:04:42;;;;;;;7.80;3.20;;;;;;;;;;5035967;28;20210;-77
2023/02/03 01:07:08;;;;;;;7.50;3.10;;;;;;;;;;5036352;28;20230;-77
2023/02/03 01:09:34;;;;;;;7.27;3.43;;;;;;;;;;5036002;28;20198;-77
2023/02/03 01:12:00;;;;;;;7.40;3.08;;;;;;;;;;5035532;28;20570;-77
2023/02/03 01:14:26;;;;;;;11.33;3.40;;;;;;;;;;5035545;28;20212;-77
2023/02/03 01:16:53;;;;;;;7.80;3.23;;;;;;;;;;5036006;28;20416;-77
2023/02/03 01:19:19;;;;;;;5.18;2.80;;;;;;;;;;5035780;28;20412;-78
2023/02/03 01:21:45;;;;;;;5.80;3.30;;;;;;;;;;5036456;28;20175;-77
2023/02/03 01:24:11;;;;;;;8.83;4.60;;;;;;;;;;5035781;28;20186;-77
2023/02/03 01:26:37;;;;;;;6.65;3.95;;;;;;;;;;5035496;28;20503;-77
2023/02/03 01:29:03;;;;;;;7.80;3.47;;;;;;;;;;5035482;28;20170;-77
2023/02/03 01:31:32;;;;;;;6.57;3.20;;;;;;;;;;5034502;28;20421;-77
2023/02/03 01:33:58;;;;;;;7.47;3.50;;;;;;;;;;5036414;28;20166;-77
2023/02/03 01:36:25;;;;;;;12.45;3.28;;;;;;;;;;5035859;28;20175;-78
2023/02/03 01:38:51;;;;;;;8.27;3.60;;;;;;;;;;5036262;28;20175;-77
2023/02/03 01:41:19;;;;;;;7.13;3.35;;;;;;;;;;5039597;28;20182;-77
2023/02/03 01:43:46;;;;;;;8.45;3.75;;;;;;;;;;5039989;28;20176;-77
2023/02/03 01:46:27;;;;;;;4.97;3.28;;;;;;;;;;5038259;28;20202;-77
2023/02/03 01:48:55;;;;;;;9.88;3.20;;;;;;;;;;5039406;28;20178;-77
2023/02/03 01:51:22;;;;;;;8.80;3.25;;;;;;;;;;5039264;28;20182;-76
2023/02/03 01:53:49;;;;;;;10.50;3.55;;;;;;;;;;5038385;28;20232;-76
2023/02/03 01:56:15;;;;;;;4.95;2.70;;;;;;;;;;5039615;28;20229;-76
2023/02/03 01:58:42;;;;;;;10.27;2.95;;;;;;;;;;5038292;28;20256;-76
2023/02/03 02:01:08;;;;;;;9.05;3.13;;;;;;;;;;5039395;28;20182;-76
2023/02/03 02:03:54;;;;;;;4.97;2.43;;;;;;;;;;5037881;28;20189;-76
2023/02/03 02:06:20;;;;;;;5.30;2.90;;;;;;;;;;5038914;28;20494;-76
2023/02/03 02:08:48;;;;;;;4.82;2.92;;;;;;;;;;5038304;28;20193;-76
2023/02/03 02:11:14;;;;;;;6.25;2.95;;;;;;;;;;5039453;28;20252;-76
2023/02/03 02:13:41;;;;;;;5.47;2.70;;;;;;;;;;5037126;28;20186;-76
2023/02/03 02:16:25;;;;;;;10.05;3.40;;;;;;;;;;5039499;28;20312;-76
2023/02/03 02:19:00;;;;;;;7.50;2.70;;;;;;;;;;5039756;28;20169;-76
2023/02/03 02:21:35;;;;;;;5.65;2.80;;;;;;;;;;5039060;28;20166;-76
2023/02/03 02:24:10;;;;;;;7.45;2.85;;;;;;;;;;5039583;28;20201;-76
2023/02/03 02:26:39;;;;;;;8.25;3.00;;;;;;;;;;5038567;28;20181;-76
2023/02/03 02:29:08;;;;;;;5.82;3.03;;;;;;;;;;5037539;28;20206;-76
2023/02/03 02:31:37;;;;;;;8.07;3.13;;;;;;;;;;5039508;28;20176;-76
2023/02/03 02:34:15;;;;;;;6.65;3.35;;;;;;;;;;5039605;28;20182;-76
2023/02/03 02:37:03;;;;;;;8.05;2.85;;;;;;;;;;5038714;28;20239;-76
2023/02/03 02:39:29;;;;;;;5.95;2.80;;;;;;;;;;5038966;28;20182;-76
2023/02/03 02:41:57;;;;;;;5.57;3.10;;;;;;;;;;5038894;28;20527;-76
2023/02/03 02:44:40;;;;;;;6.45;2.60;;;;;;;;;;5038806;28;20409;-78
2023/02/03 02:47:11;;;;;;;8.27;3.30;;;;;;;;;;5038449;28;20166;-76
2023/02/03 02:49:41;;;;;;;8.25;3.22;;;;;;;;;;5038477;28;20201;-76
2023/02/03 02:52:08;;;;;;;7.88;2.72;;;;;;;;;;5038031;28;20309;-76
2023/02/03 02:54:37;;;;;;;4.38;2.50;;;;;;;;;;5036955;28;20204;-76
2023/02/03 02:57:04;;;;;;;7.28;2.78;;;;;;;;;;5038086;28;20574;-76
2023/02/03 02:59:30;;;;;;;8.27;3.28;;;;;;;;;;5037995;28;20189;-76
2023/02/03 03:01:56;;;;;;;5.57;2.97;;;;;;;;;;5037201;28;20639;-76
2023/02/03 03:04:24;;;;;;;9.93;2.40;;;;;;;;;;5038215;28;20189;-76
2023/02/03 03:07:01;;;;;;;6.40;2.60;;;;;;;;;;5037935;28;20416;-76
2023/02/03 03:09:34;;;;;;;2.83;2.13;;;;;;;;;;5038321;28;20307;-76
2023/02/03 03:12:04;;;;;;;6.38;3.20;;;;;;;;;;5037079;28;20189;-76
2023/02/03 03:14:31;;;;;;;2.92;2.60;;;;;;;;;;5037974;28;20583;-76
2023/02/03 03:16:59;;;;;;;12.68;3.58;;;;;;;;;;5037811;28;20174;-76
2023/02/03 03:19:27;;;;;;;4.35;2.60;;;;;;;;;;5037176;28;20528;-79
2023/02/03 03:21:56;;;;;;;8.63;3.60;;;;;;;;;;5037610;28;20185;-76
2023/02/03 03:24:25;;;;;;;10.63;3.53;;;;;;;;;;5037641;28;20174;-76
2023/02/03 03:26:55;;;;;;;6.38;3.00;;;;;;;;;;5037887;28;20174;-76
2023/02/03 03:29:24;;;;;;;9.95;3.38;;;;;;;;;;5037644;28;20664;-76
2023/02/03 03:31:50;;;;;;;5.18;3.50;;;;;;;;;;5037162;28;20232;-76
2023/02/03 03:34:17;;;;;;;4.65;2.75;;;;;;;;;;5037833;28;20252;-76
2023/02/03 03:36:49;;;;;;;4.30;2.92;;;;;;;;;;5037409;28;20193;-76
2023/02/03 03:39:20;;;;;;;9.30;3.28;;;;;;;;;;5037669;28;20174;-76
2023/02/03 03:42:05;;;;;;;7.13;2.90;;;;;;;;;;5036857;28;20175;-76
2023/02/03 03:44:57;;;;;;;5.15;3.17;;;;;;;;;;5037065;28;20523;-76
2023/02/03 03:47:27;;;;;;;6.65;3.10;;;;;;;;;;5034679;28;20194;-76
2023/02/03 03:49:54;;;;;;;7.28;3.55;;;;;;;;;;5037707;28;20204;-76
2023/02/03 03:52:22;;;;;;;8.07;3.15;;;;;;;;;;5037441;28;20217;-76
2023/02/03 03:54:49;;;;;;;6.63;3.60;;;;;;;;;;5036841;28;20523;-76
2023/02/03 03:57:18;;;;;;;12.82;3.70;;;;;;;;;;5037459;28;20222;-76
2023/02/03 03:59:46;;;;;;;5.13;3.50;;;;;;;;;;5035576;28;20634;-76
2023/02/03 04:02:13;;;;;;;6.85;3.38;;;;;;;;;;5037034;28;20206;-76
2023/02/03 04:04:39;;;;;;;9.23;4.00;;;;;;;;;;5036168;28;20197;-76
2023/02/03 04:07:05;;;;;;;11.73;4.15;;;;;;;;;;5035444;28;20241;-76
2023/02/03 04:09:31;;;;;;;6.57;3.40;;;;;;;;;;5036431;28;20236;-76
2023/02/03 04:12:00;;;;;;;7.20;3.88;;;;;;;;;;5037149;28;20185;-76
2023/02/03 04:14:26;;;;;;;10.75;3.20;;;;;;;;;;5037321;28;20182;-76
2023/02/03 04:16:52;;;;;;;6.35;2.70;;;;;;;;;;5037003;28;20184;-75
2023/02/03 04:19:18;;;;;;;3.43;2.10;;;;;;;;;;5037546;28;20601;-76
2023/02/03 04:21:44;;;;;;;8.53;3.07;;;;;;;;;;5037104;28;20415;-76
2023/02/03 04:24:10;;;;;;;6.35;3.72;;;;;;;;;;5037423;28;20408;-76
2023/02/03 04:26:37;;;;;;;3.00;2.17;;;;;;;;;;5035149;28;20192;-76
2023/02/03 04:29:03;;;;;;;8.18;5.45;;;;;;;;;;5036996;28;20183;-76
2023/02/03 04:31:29;;;;;;;4.53;2.80;;;;;;;;;;5036781;28;20221;-76
2023/02/03 04:33:55;;;;;;;6.85;3.47;;;;;;;;;;5036885;28;20185;-76
2023/02/03 04:36:21;;;;;;;8.00;4.80;;;;;;;;;;5035259;28;20182;-76
2023/02/03 04:38:48;;;;;;;11.38;2.90;;;;;;;;;;5036749;28;20547;-76
2023/02/03 04:41:14;;;;;;;11.65;3.45;;;;;;;;;;5036961;28;20284;-76
2023/02/03 04:43:40;;;;;;;10.00;3.03;;;;;;;;;;5036580;28;20214;-76
2023/02/03 04:46:06;;;;;;;11.47;3.27;;;;;;;;;;5036557;28;20930;-76
2023/02/03 04:48:32;;;;;;;7.87;2.70;;;;;;;;;;5036740;28;20424;-76
2023/02/03 04:51:05;;;;;;;9.20;3.40;;;;;;;;;;5036913;28;20480;-76
2023/02/03 04:53:31;;;;;;;7.15;3.25;;;;;;;;;;5036696;28;20503;-79
2023/02/03 04:55:57;;;;;;;8.82;2.35;;;;;;;;;;5036461;28;20711;-76
2023/02/03 04:58:23;;;;;;;11.32;3.50;;;;;;;;;;5037955;28;20209;-76
2023/02/03 05:00:49;;;;;;;7.53;2.72;;;;;;;;;;5036821;28;20177;-76
2023/02/03 05:03:15;;;;;;;13.67;4.23;;;;;;;;;;5036885;28;20200;-75
2023/02/03 05:05:41;;;;;;;18.10;3.77;;;;;;;;;;5036979;28;20894;-76
2023/02/03 05:08:07;;;;;;;7.33;2.70;;;;;;;;;;5036890;28;20420;-76
2023/02/03 05:10:33;;;;;;;5.87;2.90;;;;;;;;;;5036634;28;20572;-77
2023/02/03 05:12:59;;;;;;;5.53;2.90;;;;;;;;;;5036400;28;20409;-75
2023/02/03 05:15:25;;;;;;;4.27;2.10;;;;;;;;;;5038835;28;20427;-76
2023/02/03 05:17:51;;;;;;;12.90;5.43;;;;;;;;;;5035664;28;20402;-76
2023/02/03 05:20:17;;;;;;;4.65;2.63;;;;;;;;;;5020926;28;20418;-76
2023/02/03 05:22:43;;;;;;;3.50;2.22;;;;;;;;;;5020641;28;20189;-76
2023/02/03 05:25:09;;;;;;;8.27;2.80;;;;;;;;;;5020915;28;20186;-76
2023/02/03 05:27:38;;;;;;;10.50;3.20;;;;;;;;;;5021092;28;20573;-76
2023/02/03 05:30:04;;;;;;;5.97;2.42;;;;;;;;;;5018794;28;20573;-76
2023/02/03 05:32:30;;;;;;;9.60;2.65;;;;;;;;;;5019238;28;20179;-76
2023/02/03 05:34:56;;;;;;;6.83;2.70;;;;;;;;;;5020298;28;20646;-76
2023/02/03 05:37:22;;;;;;;6.53;2.83;;;;;;;;;;5018927;28;20437;-76
2023/02/03 05:39:48;;;;;;;6.65;2.60;;;;;;;;;;5020075;28;20413;-76
2023/02/03 05:42:14;;;;;;;8.33;2.40;;;;;;;;;;5020449;28;20213;-76
2023/02/03 05:44:41;;;;;;;6.30;2.20;;;;;;;;;;5019621;28;20828;-76
2023/02/03 05:47:07;;;;;;;6.88;1.98;;;;;;;;;;5020184;28;20443;-76
2023/02/03 05:49:32;;;;;;;10.83;2.20;;;;;;;;;;5020505;28;20214;-76
2023/02/03 05:51:59;;;;;;;8.73;1.87;;;;;;;;;;5019689;28;20402;-76
2023/02/03 05:54:24;;;;;;;4.82;1.80;;;;;;;;;;5019058;28;21032;-76
2023/02/03 05:56:50;;;;;;;8.50;3.03;;;;;;;;;;5019640;28;20259;-76
2023/02/03 05:59:17;;;;;;;8.63;2.38;;;;;;;;;;5019608;28;20911;-76
2023/02/03 06:01:43;;;;;;;3.95;2.33;;;;;;;;;;5019999;28;20183;-76
2023/02/03 06:04:09;;;;;;;3.87;1.50;;;;;;;;;;5018902;28;20265;-76
2023/02/03 06:06:35;;;;;;;7.47;2.38;;;;;;;;;;5019542;28;20742;-78
2023/02/03 06:09:02;;;;;;;5.25;1.50;;;;;;;;;;5020041;28;20278;-76
2023/02/03 06:11:28;;;;;;;8.70;2.67;;;;;;;;;;5019589;28;20568;-76
2023/02/03 06:13:55;;;;;;;4.90;1.85;;;;;;;;;;5019632;28;20505;-76
2023/02/03 06:16:23;;;;;;;14.98;2.45;;;;;;;;;;5019953;28;20206;-76
2023/02/03 06:18:50;;;;;;;11.68;2.00;;;;;;;;;;5017988;28;20198;-76
2023/02/03 06:21:15;;;;;;;6.80;2.70;;;;;;;;;;5019871;28;20175;-76
2023/02/03 06:23:41;;;;;;;7.03;1.50;;;;;;;;;;5017723;28;20189;-76
2023/02/03 06:26:07;;;;;;;14.03;2.43;;;;;;;;;;5018899;28;20433;-76
2023/02/03 06:28:33;;;;;;;7.40;2.40;;;;;;;;;;5019542;28;20409;-76
2023/02/03 06:30:59;;;;;;;7.90;2.03;;;;;;;;;;5021376;28;20481;-76
2023/02/03 06:33:25;;;;;;;7.55;2.90;;;;;;;;;;5019379;28;20505;-76
2023/02/03 06:35:53;;;;;;;6.83;2.50;;;;;;;;;;5017149;28;20206;-76
2023/02/03 06:38:19;;;;;;;6.70;2.40;;;;;;;;;;5017169;28;20565;-75
2023/02/03 06:40:47;;;;;;;7.30;2.30;;;;;;;;;;5018643;28;20632;-76
2023/02/03 06:43:14;;;;;;;8.38;2.15;;;;;;;;;;5017424;28;20418;-76
2023/02/03 06:45:40;;;;;;;4.75;2.63;;;;;;;;;;5018489;28;20258;-76
2023/02/03 06:48:06;;;;;;;7.80;2.00;;;;;;;;;;5019185;28;20207;-76
2023/02/03 06:50:32;;;;;;;6.55;2.25;;;;;;;;;;5017443;28;20461;-76
2023/02/03 06:52:58;;;;;;;7.13;2.13;;;;;;;;;;5018513;28;20175;-76
2023/02/03 06:55:24;;;;;;;3.00;1.67;;;;;;;;;;5018940;28;20186;-76
2023/02/03 06:57:50;;;;;;;9.05;1.95;;;;;;;;;;5017960;28;20526;-76
2023/02/03 07:00:17;;;;;;;5.43;2.20;;;;;;;;;;5017239;28;20186;-76
2023/02/03 07:02:43;;;;;;;2.85;1.55;;;;;;;;;;5018125;28;20402;-76
2023/02/03 07:05:09;;;;;;;4.57;2.38;;;;;;;;;;5018778;28;20182;-76
2023/02/03 07:07:38;;;;;;;10.18;2.55;;;;;;;;;;5018599;28;20186;-76
2023/02/03 07:10:04;;;;;;;5.70;2.08;;;;;;;;;;5018119;28;20226;-76
2023/02/03 07:12:30;;;;;;;5.20;1.98;;;;;;;;;;5017244;28;20272;-76
2023/02/03 07:14:56;;;;;;;5.88;2.17;;;;;;;;;;5018200;28;20253;-76
2023/02/03 07:17:22;;;;;;;16.43;2.03;;;;;;;;;;5018420;28;20202;-76
2023/02/03 07:19:48;;;;;;;1.70;1.27;;;;;;;;;;5018259;28;20406;-76
2023/02/03 07:22:14;;;;;;;5.68;1.75;;;;;;;;;;5018037;28;20409;-75
2023/02/03 07:24:40;;;;;;;3.95;1.40;;;;;;;;;;5018006;28;20653;-76
2023/02/03 07:27:06;;;;;;;6.30;2.50;;;;;;;;;;5017948;28;20186;-76
2023/02/03 07:29:32;;;;;;;7.18;1.80;;;;;;;;;;5018093;28;20549;-76
2023/02/03 07:32:01;;;;;;;3.50;1.57;;;;;;;;;;5016699;28;20218;-76
2023/02/03 07:34:27;;;;;;;4.20;2.03;;;;;;;;;;5016275;28;20512;-76
2023/02/03 07:36:53;;;;;;;8.07;1.80;;;;;;;;;;5017484;28;20215;-76
2023/02/03 07:39:19;;;;;;;7.17;1.10;;;;;;;;;;5017805;28;20402;-76
2023/02/03 07:41:45;;;;;;;4.50;1.80;;;;;;;;;;5037009;28;20855;-77
2023/02/03 07:44:11;;;;;;;7.47;2.30;;;;;;;;;;5037773;28;20463;-76
2023/02/03 07:46:43;;;;;;;3.20;1.20;;;;;;;;;;5037624;28;20187;-76
2023/02/03 07:49:10;;;;;;;4.30;1.45;;;;;;;;;;5037644;28;20181;-76
2023/02/03 07:51:36;;;;;;;4.43;0.90;;;;;;;;;;5038174;28;20182;-76
2023/02/03 07:54:02;;;;;;;5.13;1.50;;;;;;;;;;5037614;28;20182;-76
2023/02/03 07:56:29;;;;;;;1.80;1.10;;;;;;;;;;5035644;28;20511;-76
2023/02/03 07:58:55;;;;;;;9.55;1.40;;;;;;;;;;5037139;28;20419;-74
2023/02/03 08:01:21;;;;;;;7.05;1.83;;;;;;;;;;5036874;28;20244;-78
2023/02/03 08:03:47;;;;;;;2.57;1.43;;;;;;;;;;5036851;28;20178;-76
2023/02/03 08:06:13;;;;;;;7.07;1.70;;;;;;;;;;5070257;28;20416;-76
2023/02/03 08:08:40;;;;;;;5.85;1.98;;;;;;;;;;5037412;28;20431;-76
2023/02/03 08:11:06;;;;;;;7.00;1.80;;;;;;;;;;5036713;28;20288;-76
2023/02/03 08:13:32;;;;;;;3.90;1.25;;;;;;;;;;5035987;28;20182;-75
2023/02/03 08:15:58;;;;;;;2.97;1.17;;;;;;;;;;5068891;28;20170;-76
2023/02/03 08:18:24;;;;;;;7.53;1.65;;;;;;;;;;5037385;28;20181;-75
2023/02/03 08:20:50;;;;;;;7.17;1.33;;;;;;;;;;5035838;28;20291;-75
2023/02/03 08:23:16;;;;;;;3.60;1.20;;;;;;;;;;5037258;28;20436;-75
2023/02/03 08:25:42;;;;;;;2.55;1.67;;;;;;;;;;5036563;28;20413;-75
2023/02/03 08:28:08;;;;;;;5.67;1.43;;;;;;;;;;5037106;28;20241;-75
2023/02/03 08:30:34;;;;;;;2.60;1.23;;;;;;;;;;5051813;28;21273;-75
2023/02/03 08:33:00;;;;;;;4.72;1.90;;;;;;;;;;5036722;28;20427;-75
2023/02/03 08:35:26;;;;;;;5.38;1.63;;;;;;;;;;5036890;28;20178;-75
2023/02/03 08:37:52;;;;;;;6.97;2.27;;;;;;;;;;5068671;28;20631;-75
2023/02/03 08:40:18;;;;;;;4.72;1.65;;;;;;;;;;5068523;28;20556;-75
2023/02/03 08:42:44;;;;;;;4.28;1.25;;;;;;;;;;5036499;28;20181;-77
2023/02/03 08:45:10;;;;;;;6.00;1.67;;;;;;;;;;5033674;28;20190;-75
2023/02/03 08:47:36;;;;;;;6.83;1.77;;;;;;;;;;5060261;28;20433;-75
2023/02/03 08:50:04;;;;;;;5.97;1.30;;;;;;;;;;5037277;28;20543;-76
2023/02/03 08:52:29;;;;;;;4.60;1.65;;;;;;;;;;5036098;28;20177;-76
2023/02/03 08:54:55;;;;;;;4.07;1.50;;;;;;;;;;5040332;28;20177;-75
2023/02/03 08:57:21;;;;;;;5.20;1.50;;;;;;;;;;5039352;28;20530;-76
2023/02/03 08:59:48;;;;;;;1.77;0.83;;;;;;;;;;5019589;28;20844;-76
2023/02/03 09:02:16;;;;;;;4.00;1.00;;;;;;;;;;5020624;28;20874;-75
2023/02/03 09:04:42;;;;;;;6.45;1.70;;;;;;;;;;5021485;28;20198;-76
2023/02/03 09:07:08;;;;;;;7.15;1.90;;;;;;;;;;5019498;28;20282;-75
2023/02/03 09:09:34;;;;;;;7.57;1.40;;;;;;;;;;5037449;28;20210;-76
2023/02/03 09:12:04;;;;;;;4.67;1.67;;;;;;;;;;5012430;28;20185;-75
2023/02/03 09:14:31;;;;;;;7.72;1.70;;;;;;;;;;5059217;28;20481;-75
2023/02/03 09:16:57;;;;;;;5.70;2.25;;;;;;;;;;5060958;28;20174;-75
2023/02/03 09:19:23;;;;;;;6.68;1.38;;;;;;;;;;5059555;28;20764;-75
2023/02/03 09:21:49;;;;;;;4.40;1.43;;;;;;;;;;5042767;28;20209;-76
2023/02/03 09:24:16;;;;;;;3.60;1.77;;;;;;;;;;5060687;28;20527;-75
2023/02/03 09:26:42;;;;;;;6.88;1.40;;;;;;;;;;5060392;28;20418;-76
2023/02/03 09:29:08;;;;;;;6.05;1.83;;;;;;;;;;5059095;28;20189;-76
2023/02/03 09:31:34;;;;;;;4.75;1.35;;;;;;;;;;5060732;28;20217;-76
2023/02/03 09:34:00;;;;;;;2.33;1.27;;;;;;;;;;5060322;28;20197;-76
2023/02/03 09:36:26;;;;;;;5.60;1.77;;;;;;;;;;5060142;28;20499;-76
2023/02/03 09:38:52;;;;;;;5.82;1.80;;;;;;;;;;5059374;28;20412;-77
2023/02/03 09:41:18;;;;;;;3.97;1.60;;;;;;;;;;5058146;28;20592;-75
2023/02/03 09:43:48;;;;;;;6.83;1.80;;;;;;;;;;5060203;28;20408;-75
2023/02/03 09:46:18;;;;;;;3.85;1.65;;;;;;;;;;5060350;28;20483;-76
2023/02/03 09:48:56;;;;;;;6.72;1.98;;;;;;;;;;5058721;28;20181;-75
2023/02/03 09:51:24;;;;;;;4.15;2.00;;;;;;;;;;5060425;28;20200;-76
2023/02/03 09:54:12;;;;;;;3.25;1.85;;;;;;;;;;5059268;28;20185;-76
2023/02/03 09:56:39;;;;;;;11.52;4.53;;;;;;;;;;5059822;28;20676;-76
2023/02/03 09:59:05;;;;;;;11.25;3.03;;;;;;;;;;5059519;28;20534;-76
2023/02/03 10:01:45;;;;;;;2.60;2.00;;;;;;;;;;5057804;28;20177;-76
2023/02/03 10:04:46;;;;;;;4.75;2.20;;;;;;;;;;5059229;28;20154;-76
2023/02/03 10:07:24;;;;;;;4.53;2.05;;;;;;;;;;4980976;28;20191;-76
2023/02/03 10:09:57;;;;;;;7.78;2.28;;;;;;;;;;5051432;28;20584;-77
2023/02/03 10:12:23;;;;;;;6.70;1.83;;;;;;;;;;5059910;28;20161;-76
2023/02/03 10:15:08;;;;;;;5.33;2.00;;;;;;;;;;5058654;28;20529;-78
2023/02/03 10:17:54;;;;;;;4.40;2.15;;;;;;;;;;5057603;28;20404;-76
2023/02/03 10:20:23;;;;;;;4.13;2.05;;;;;;;;;;5058874;28;20230;-76
2023/02/03 10:22:51;;;;;;;6.72;1.80;;;;;;;;;;5057774;28;20184;-76
2023/02/03 10:25:23;;;;;;;6.78;2.40;;;;;;;;;;5058994;28;20231;-76
2023/02/03 10:27:50;;;;;;;6.53;3.33;;;;;;;;;;5058713;28;20165;-75
2023/02/03 10:30:20;;;;;;;10.93;2.47;;;;;;;;;;5058809;28;20210;-76
2023/02/03 10:32:48;;;;;;;5.75;2.80;;;;;;;;;;5058596;28;20199;-76
2023/02/03 10:35:14;;;;;;;9.38;3.33;;;;;;;;;;5058910;28;20197;-76
2023/02/03 10:37:43;;;;;;;6.10;2.60;;;;;;;;;;5059027;28;20276;-76
2023/02/03 10:40:12;;;;;;;9.82;2.47;;;;;;;;;;5058570;28;20174;-76
2023/02/03 10:45:23;;;;;;;5.40;3.10;;;;;;;;;;5059385;28;20215;-77
2023/02/03 10:47:53;;;;;;;5.55;3.22;;;;;;;;;;5058598;28;20270;-76
2023/02/03 10:50:20;;;;;;;6.05;3.45;;;;;;;;;;5058412;28;20202;-76
2023/02/03 10:52:46;;;;;;;8.50;4.03;;;;;;;;;;5058458;28;20177;-76
2023/02/03 10:55:21;;;;;;;9.38;3.92;;;;;;;;;;5056191;28;20184;-76
2023/02/03 10:57:48;;;;;;;6.82;3.38;;;;;;;;;;5056816;28;20229;-77
2023/02/03 11:00:17;;;;;;;6.60;3.80;;;;;;;;;;5057037;28;20212;-76
2023/02/03 11:02:44;;;;;;;4.95;3.75;;;;;;;;;;5058180;28;20175;-76
2023/02/03 11:05:18;;;;;;;9.25;3.60;;;;;;;;;;5056539;28;20180;-76
2023/02/03 11:07:44;;;;;;;7.55;3.85;;;;;;;;;;5058028;28;20657;-76
2023/02/03 11:10:34;;;;;;;6.72;4.30;;;;;;;;;;5056779;28;20214;-76
2023/02/03 11:13:12;;;;;;;9.93;3.92;;;;;;;;;;5049384;28;20194;-76
2023/02/03 11:15:53;;;;;;;7.50;3.80;;;;;;;;;;5057873;28;20188;-76
2023/02/03 11:18:26;;;;;;;10.05;4.72;;;;;;;;;;5056643;28;20181;-76
2023/02/03 11:20:52;;;;;;;7.20;4.60;;;;;;;;;;5057542;28;20190;-76
2023/02/03 11:23:19;;;;;;;6.25;4.90;;;;;;;;;;5057941;28;20256;-76
2023/02/03 11:25:45;;;;;;;4.53;3.67;;;;;;;;;;5057638;28;20176;-76
2023/02/03 11:28:12;;;;;;;8.20;3.97;;;;;;;;;;5057462;28;20541;-76
2023/02/03 11:30:38;;;;;;;13.57;4.60;;;;;;;;;;5057430;28;20454;-76
2023/02/03 11:33:13;;;;;;;6.43;5.33;;;;;;;;;;5057144;28;20186;-76
2023/02/03 11:35:39;;;;;;;12.27;6.38;;;;;;;;;;5057823;28;20862;-76
2023/02/03 11:38:25;;;;;;;11.98;5.35;;;;;;;;;;5056906;28;20203;-76
2023/02/03 11:40:58;;;;;;;7.60;4.90;;;;;;;;;;5055823;28;20238;-76
2023/02/03 11:43:25;;;;;;;9.00;4.95;;;;;;;;;;5057029;28;20176;-77
2023/02/03 11:45:52;;;;;;;7.72;6.45;;;;;;;;;;5056723;28;20247;-76
2023/02/03 11:48:27;;;;;;;16.90;5.97;;;;;;;;;;5056833;28;20197;-76
2023/02/03 11:51:03;;;;;;;8.93;6.18;;;;;;;;;;5056979;28;20242;-76
2023/02/03 11:53:35;;;;;;;7.90;5.32;;;;;;;;;;5057611;28;20264;-76
2023/02/03 11:56:07;;;;;;;10.30;5.22;;;;;;;;;;5055090;28;20184;-77
2023/02/03 11:58:39;;;;;;;7.20;5.35;;;;;;;;;;5056038;28;20183;-76
2023/02/03 12:01:44;;;;;;;8.57;5.60;;;;;;;;;;5056589;28;20169;-76
2023/02/03 12:04:16;;;;;;;6.53;5.25;;;;;;;;;;4969168;28;20215;-76
2023/02/03 12:07:08;;;;;;;12.48;5.35;;;;;;;;;;4980367;28;20300;-77
2023/02/03 12:09:52;;;;;;;6.70;5.40;;;;;;;;;;5007421;28;20190;-76
2023/02/03 12:12:50;;;;;;;8.40;5.65;;;;;;;;;;5035640;28;20177;-76
2023/02/03 12:15:19;;;;;;;8.70;6.45;;;;;;;;;;5024309;28;20639;-76
2023/02/03 12:17:51;;;;;;;9.75;6.50;;;;;;;;;;5036909;28;20186;-76
2023/02/03 12:20:20;;;;;;;11.95;6.93;;;;;;;;;;5037034;28;20220;-76
2023/02/03 12:23:08;;;;;;;10.05;7.38;;;;;;;;;;5036905;28;20174;-77
2023/02/03 12:25:40;;;;;;;8.90;5.80;;;;;;;;;;5035816;28;20162;-76
2023/02/03 12:28:13;;;;;;;10.27;6.10;;;;;;;;;;5034755;28;20178;-76
2023/02/03 12:30:43;;;;;;;8.25;6.38;;;;;;;;;;5035098;28;20206;-77
2023/02/03 12:33:16;;;;;;;13.68;7.30;;;;;;;;;;5036119;28;20158;-76
2023/02/03 12:35:55;;;;;;;6.47;5.57;;;;;;;;;;5036841;28;20169;-76
2023/02/03 12:38:34;;;;;;;7.32;5.45;;;;;;;;;;5036314;28;20178;-76
2023/02/03 12:41:00;;;;;;;6.65;5.93;;;;;;;;;;5036585;28;20177;-76
2023/02/03 12:43:38;;;;;;;10.68;7.38;;;;;;;;;;5036624;28;20300;-76
2023/02/03 12:46:23;;;;;;;8.73;5.72;;;;;;;;;;5035174;28;20661;-76
2023/02/03 12:48:49;;;;;;;9.68;6.85;;;;;;;;;;5036435;28;20261;-76
2023/02/03 12:51:20;;;;;;;9.67;6.90;;;;;;;;;;5036064;28;20210;-76
2023/02/03 12:53:49;;;;;;;11.15;7.68;;;;;;;;;;5036615;28;20397;-77
2023/02/03 12:56:18;;;;;;;10.65;7.43;;;;;;;;;;5036159;28;20573;-76
2023/02/03 12:58:48;;;;;;;9.75;7.53;;;;;;;;;;5035234;28;20316;-76
2023/02/03 13:01:18;;;;;;;11.15;8.80;;;;;;;;;;5035097;28;20186;-76
2023/02/03 13:03:53;;;;;;;9.27;6.97;;;;;;;;;;5037228;28;20182;-76
2023/02/03 13:06:21;;;;;;;11.38;7.13;;;;;;;;;;5036065;28;20182;-75
2023/02/03 13:09:06;;;;;;;9.93;8.45;;;;;;;;;;5036679;28;20174;-76
2023/02/03 13:11:50;;;;;;;10.10;7.20;;;;;;;;;;5036439;28;20213;-76
2023/02/03 13:14:26;;;;;;;12.15;7.70;;;;;;;;;;5036155;28;20180;-76
2023/02/03 13:16:58;;;;;;;9.02;8.15;;;;;;;;;;5036261;28;20260;-76
2023/02/03 13:19:26;;;;;;;11.20;8.10;;;;;;;;;;5035835;28;20167;-76
2023/02/03 13:21:52;;;;;;;18.38;8.30;;;;;;;;;;5036367;28;20248;-76
2023/02/03 13:24:19;;;;;;;14.20;9.20;;;;;;;;;;5035661;28;20578;-76
2023/02/03 13:26:54;;;;;;;11.65;8.88;;;;;;;;;;5036777;28;20555;-76
2023/02/03 13:29:40;;;;;;;16.30;8.88;;;;;;;;;;5036000;28;20573;-76
2023/02/03 13:32:06;;;;;;;13.52;8.55;;;;;;;;;;5035860;28;20206;-76
2023/02/03 13:34:52;;;;;;;12.00;8.50;;;;;;;;;;5036090;28;20177;-76
2023/02/03 13:37:21;;;;;;;10.18;9.15;;;;;;;;;;5038370;28;20884;-76
2023/02/03 13:40:02;;;;;;;13.00;7.82;;;;;;;;;;5039245;28;20733;-76
2023/02/03 13:42:32;;;;;;;13.68;8.52;;;;;;;;;;5040361;28;20185;-76
2023/02/03 13:45:19;;;;;;;13.43;9.50;;;;;;;;;;5039263;28;20183;-75
2023/02/03 13:47:46;;;;;;;17.83;9.88;;;;;;;;;;5034772;28;20190;-76
2023/02/03 13:50:18;;;;;;;10.52;8.73;;;;;;;;;;5039157;28;20194;-76
2023/02/03 13:52:46;;;;;;;14.18;8.55;;;;;;;;;;5039344;28;20193;-76
2023/02/03 13:55:31;;;;;;;13.85;9.18;;;;;;;;;;5039619;28;20167;-76
2023/02/03 13:57:57;;;;;;;9.55;8.20;;;;;;;;;;5039777;28;20218;-76
2023/02/03 14:00:42;;;;;;;12.45;8.40;;;;;;;;;;5039015;28;20281;-76
2023/02/03 14:03:31;;;;;;;12.90;10.25;;;;;;;;;;5039183;28;20547;-76
2023/02/03 14:05:58;;;;;;;12.07;8.82;;;;;;;;;;5033987;28;20201;-77
2023/02/03 14:08:27;;;;;;;11.35;9.32;;;;;;;;;;5038972;28;20181;-76
2023/02/03 14:11:11;;;;;;;12.80;10.00;;;;;;;;;;5039157;28;20202;-76
2023/02/03 14:13:37;;;;;;;13.20;10.27;;;;;;;;;;5038004;28;20182;-76
2023/02/03 14:16:14;;;;;;;21.27;12.50;;;;;;;;;;5039001;28;20257;-76
2023/02/03 14:18:44;;;;;;;16.10;11.35;;;;;;;;;;5039078;28;20197;-76
2023/02/03 14:21:20;;;;;;;17.45;9.82;;;;;;;;;;5038950;28;20257;-76
2023/02/03 14:23:48;;;;;;;14.18;10.88;;;;;;;;;;5038623;28;20170;-76
2023/02/03 14:26:17;;;;;;;11.60;9.48;;;;;;;;;;5038508;28;20177;-76
2023/02/03 14:28:44;;;;;;;13.73;10.80;;;;;;;;;;5038391;28;20180;-76
2023/02/03 14:31:14;;;;;;;16.88;9.32;;;;;;;;;;5039032;28;20209;-76
2023/02/03 14:33:56;;;;;;;11.55;10.35;;;;;;;;;;5038988;28;20163;-76
2023/02/03 14:36:42;;;;;;;15.70;11.88;;;;;;;;;;5038228;28;20174;-76
2023/02/03 14:39:18;;;;;;;17.60;12.10;;;;;;;;;;5036736;28;20312;-76
2023/02/03 14:41:50;;;;;;;16.02;10.90;;;;;;;;;;5037368;28;20186;-76
2023/02/03 14:44:24;;;;;;;12.32;8.73;;;;;;;;;;5038267;28;20174;-76
2023/02/03 14:46:50;;;;;;;15.80;11.63;;;;;;;;;;5036523;28;20178;-76
2023/02/03 14:49:40;;;;;;;20.90;12.13;;;;;;;;;;5038095;28;20174;-76
2023/02/03 14:52:22;;;;;;;16.27;11.25;;;;;;;;;;5036948;28;20952;-79
2023/02/03 14:54:58;;;;;;;14.63;11.38;;;;;;;;;;5038262;28;20174;-76